createdAt,value
2023-03-28T00:00:59.343Z,54.10
2023-03-28T00:03:27.295Z,53.70
2023-03-28T00:05:57.165Z,54.00
2023-03-28T00:08:23.952Z,54.30
2023-03-28T00:10:50.769Z,54.80
2023-03-28T00:13:19.792Z,53.90
2023-03-28T00:15:46.885Z,54.00
2023-03-28T00:18:14.305Z,54.20
2023-03-28T00:20:43.458Z,54.40
2023-03-28T00:23:11.976Z,54.20
2023-03-28T00:25:41.982Z,54.00
2023-03-28T00:28:08.732Z,53.70
2023-03-28T00:30:35.635Z,54.20
2023-03-28T00:33:05.033Z,53.50
2023-03-28T00:35:32.345Z,53.40
2023-03-28T00:37:59.153Z,54.00
2023-03-28T00:40:26.267Z,54.40
2023-03-28T00:42:53.365Z,53.90
2023-03-28T00:45:21.619Z,54.00
2023-03-28T00:47:51.735Z,53.90
2023-03-28T00:50:24.003Z,53.70
2023-03-28T00:52:56.520Z,53.60
2023-03-28T00:55:29.070Z,54.00
2023-03-28T00:57:55.735Z,53.80
2023-03-28T01:00:23.096Z,53.70
2023-03-28T01:02:53.142Z,53.90
2023-03-28T01:05:23.390Z,53.70
2023-03-28T01:07:52.456Z,53.80
2023-03-28T01:10:20.012Z,54.40
2023-03-28T01:12:47.065Z,54.10
2023-03-28T01:15:13.854Z,53.30
2023-03-28T01:17:41.405Z,53.20
2023-03-28T01:20:26.692Z,53.40
2023-03-28T01:23:12.041Z,53.00
2023-03-28T01:26:05.022Z,53.00
2023-03-28T01:28:43.766Z,53.10
2023-03-28T01:31:13.364Z,53.20
2023-03-28T01:33:58.490Z,53.20
2023-03-28T01:36:35.680Z,53.50
2023-03-28T01:39:23.215Z,53.10
2023-03-28T01:42:13.079Z,53.10
2023-03-28T01:44:39.653Z,53.40
2023-03-28T01:47:15.388Z,52.80
2023-03-28T01:49:41.967Z,53.20
2023-03-28T01:52:19.561Z,52.90
2023-03-28T01:54:58.247Z,52.60
2023-03-28T01:57:41.349Z,52.70
2023-03-28T02:00:26.673Z,52.70
2023-03-28T02:02:58.915Z,52.70
2023-03-28T02:05:27.025Z,52.70
2023-03-28T02:07:54.659Z,52.90
2023-03-28T02:10:25.811Z,52.50
2023-03-28T02:12:54.663Z,52.70
2023-03-28T02:15:22.174Z,52.70
2023-03-28T02:17:50.499Z,52.70
2023-03-28T02:20:19.493Z,53.10
2023-03-28T02:23:03.911Z,52.50
2023-03-28T02:25:31.777Z,53.30
2023-03-28T02:28:01.182Z,53.00
2023-03-28T02:30:28.409Z,52.30
2023-03-28T02:32:59.185Z,52.40
2023-03-28T02:35:28.960Z,52.50
2023-03-28T02:38:01.916Z,52.70
2023-03-28T02:40:34.670Z,52.90
2023-03-28T02:43:20.073Z,53.10
2023-03-28T02:45:58.452Z,52.70
2023-03-28T02:48:34.480Z,52.80
2023-03-28T02:51:17.592Z,53.20
2023-03-28T02:53:50.371Z,52.60
2023-03-28T02:56:20.077Z,52.40
2023-03-28T02:58:49.375Z,52.80
2023-03-28T03:01:15.994Z,52.70
2023-03-28T03:03:43.742Z,52.50
2023-03-28T03:06:10.626Z,52.90
2023-03-28T03:08:37.235Z,52.60
2023-03-28T03:11:03.804Z,52.60
2023-03-28T03:13:30.534Z,52.60
2023-03-28T03:15:57.311Z,53.00
2023-03-28T03:18:23.950Z,52.80
2023-03-28T03:20:50.526Z,52.90
2023-03-28T03:23:17.160Z,53.30
2023-03-28T03:25:45.234Z,52.80
2023-03-28T03:28:13.070Z,52.20
2023-03-28T03:30:39.623Z,52.20
2023-03-28T03:33:06.210Z,52.10
2023-03-28T03:35:33.490Z,51.90
2023-03-28T03:38:00.538Z,51.80
2023-03-28T03:40:27.174Z,51.80
2023-03-28T03:42:53.717Z,52.30
2023-03-28T03:45:20.261Z,52.70
2023-03-28T03:47:46.864Z,52.60
2023-03-28T03:50:13.784Z,52.30
2023-03-28T03:52:40.399Z,51.90
2023-03-28T03:55:07.518Z,52.20
2023-03-28T03:57:34.124Z,52.10
2023-03-28T04:00:02.162Z,51.70
2023-03-28T04:02:29.045Z,51.90
2023-03-28T04:04:57.221Z,51.90
2023-03-28T04:07:25.298Z,51.90
2023-03-28T04:09:51.969Z,52.10
2023-03-28T04:12:19.067Z,52.20
2023-03-28T04:14:46.065Z,51.90
2023-03-28T04:17:13.985Z,52.00
2023-03-28T04:19:40.900Z,51.90
2023-03-28T04:22:08.726Z,51.60
2023-03-28T04:24:37.746Z,52.20
2023-03-28T04:27:05.646Z,52.10
2023-03-28T04:29:33.579Z,52.10
2023-03-28T04:32:00.248Z,51.80
2023-03-28T04:34:30.259Z,51.90
2023-03-28T04:37:01.783Z,52.50
2023-03-28T04:39:32.826Z,52.10
2023-03-28T04:42:02.243Z,51.50
2023-03-28T04:44:29.625Z,51.60
2023-03-28T04:46:56.586Z,51.80
2023-03-28T04:49:23.299Z,51.80
2023-03-28T04:51:50.843Z,51.90
2023-03-28T04:54:18.834Z,52.00
2023-03-28T04:56:48.653Z,52.20
2023-03-28T04:59:17.137Z,52.10
2023-03-28T05:01:49.688Z,51.80
2023-03-28T05:04:17.846Z,52.00
2023-03-28T05:06:45.902Z,52.40
2023-03-28T05:09:14.251Z,51.90
2023-03-28T05:11:41.509Z,51.80
2023-03-28T05:14:09.142Z,51.70
2023-03-28T05:16:35.883Z,51.00
2023-03-28T05:19:02.591Z,51.30
2023-03-28T05:21:29.217Z,51.20
2023-03-28T05:23:56.747Z,51.30
2023-03-28T05:26:23.746Z,50.70
2023-03-28T05:28:51.529Z,51.30
2023-03-28T05:31:18.217Z,52.10
2023-03-28T05:33:45.277Z,51.70
2023-03-28T05:36:13.069Z,51.50
2023-03-28T05:38:40.279Z,51.50
2023-03-28T05:41:07.531Z,51.70
2023-03-28T05:43:34.678Z,51.60
2023-03-28T05:46:02.340Z,52.00
2023-03-28T05:48:29.945Z,52.10
2023-03-28T05:50:56.620Z,52.10
2023-03-28T05:53:23.264Z,52.00
2023-03-28T05:55:50.631Z,51.50
2023-03-28T05:58:17.484Z,51.60
2023-03-28T06:00:44.659Z,50.80
2023-03-28T06:03:16.358Z,51.50
2023-03-28T06:05:44.167Z,51.80
2023-03-28T06:08:10.818Z,51.60
2023-03-28T06:10:37.489Z,52.00
2023-03-28T06:13:04.079Z,51.40
2023-03-28T06:15:31.069Z,51.40
2023-03-28T06:17:58.068Z,51.60
2023-03-28T06:20:24.747Z,50.90
2023-03-28T06:22:51.342Z,51.80
2023-03-28T06:25:17.938Z,51.10
2023-03-28T06:27:44.541Z,51.40
2023-03-28T06:30:11.541Z,51.80
2023-03-28T06:32:38.166Z,51.90
2023-03-28T06:35:05.331Z,51.30
2023-03-28T06:37:31.919Z,51.30
2023-03-28T06:39:58.518Z,51.40
2023-03-28T06:42:25.269Z,51.20
2023-03-28T06:44:52.617Z,51.00
2023-03-28T06:47:19.214Z,51.00
2023-03-28T06:49:45.762Z,51.30
2023-03-28T06:52:12.371Z,50.80
2023-03-28T06:54:38.973Z,50.80
2023-03-28T06:57:05.637Z,50.60
2023-03-28T06:59:32.316Z,50.40
2023-03-28T07:01:58.932Z,50.50
2023-03-28T07:04:25.667Z,50.90
2023-03-28T07:06:52.222Z,50.80
2023-03-28T07:09:18.809Z,51.00
2023-03-28T07:11:45.629Z,51.00
2023-03-28T07:14:12.215Z,51.00
2023-03-28T07:16:38.849Z,50.80
2023-03-28T07:19:05.624Z,51.30
2023-03-28T07:21:32.183Z,50.90
2023-03-28T07:23:58.762Z,51.10
2023-03-28T07:26:27.025Z,51.20
2023-03-28T07:28:54.210Z,51.00
2023-03-28T07:31:21.379Z,50.70
2023-03-28T07:33:51.085Z,51.10
2023-03-28T07:36:19.356Z,50.50
2023-03-28T07:38:48.589Z,50.40
2023-03-28T07:41:16.380Z,51.00
2023-03-28T07:43:42.971Z,51.20
2023-03-28T07:46:10.847Z,51.20
2023-03-28T07:48:37.788Z,51.20
2023-03-28T07:51:06.156Z,51.40
2023-03-28T07:53:32.732Z,50.80
2023-03-28T07:55:59.397Z,50.50
2023-03-28T07:58:26.031Z,51.00
2023-03-28T08:00:52.724Z,51.00
2023-03-28T08:03:19.459Z,50.90
2023-03-28T08:05:51.830Z,51.50
2023-03-28T08:08:21.627Z,51.40
2023-03-28T08:10:51.440Z,51.50
2023-03-28T08:13:21.220Z,51.20
2023-03-28T08:15:53.682Z,51.30
2023-03-28T08:18:21.663Z,51.20
2023-03-28T08:20:48.603Z,51.40
2023-03-28T08:23:15.533Z,51.00
2023-03-28T08:25:42.403Z,50.80
2023-03-28T08:28:09.829Z,51.10
2023-03-28T08:30:37.446Z,51.10
2023-03-28T08:33:04.701Z,51.10
2023-03-28T08:35:31.936Z,50.90
2023-03-28T08:37:58.934Z,51.10
2023-03-28T08:40:27.170Z,51.20
2023-03-28T08:43:06.732Z,51.00
2023-03-28T08:45:33.326Z,51.20
2023-03-28T08:48:08.079Z,51.20
2023-03-28T08:50:36.295Z,51.20
2023-03-28T08:53:03.796Z,51.30
2023-03-28T08:55:39.581Z,51.20
2023-03-28T08:58:07.040Z,51.00
2023-03-28T09:00:36.769Z,50.60
2023-03-28T09:03:09.298Z,51.70
2023-03-28T09:05:53.021Z,51.60
2023-03-28T09:08:24.869Z,52.50
2023-03-28T09:10:55.325Z,51.70
2023-03-28T09:13:24.875Z,51.40
2023-03-28T09:16:02.398Z,50.80
2023-03-28T09:18:47.847Z,50.70
2023-03-28T09:21:31.335Z,50.30
2023-03-28T09:23:57.927Z,50.10
2023-03-28T09:26:27.803Z,50.50
2023-03-28T09:29:06.060Z,50.60
2023-03-28T09:31:35.361Z,50.70
2023-03-28T09:34:02.751Z,50.30
2023-03-28T09:36:45.552Z,50.60
2023-03-28T09:39:35.645Z,50.80
2023-03-28T09:42:07.992Z,50.70
2023-03-28T09:44:52.972Z,50.80
2023-03-28T09:47:20.786Z,50.80
2023-03-28T09:49:47.505Z,50.80
2023-03-28T09:52:23.223Z,49.80
2023-03-28T09:54:50.233Z,50.60
2023-03-28T09:57:17.042Z,50.20
2023-03-28T09:59:43.712Z,50.00
2023-03-28T10:02:36.758Z,49.60
2023-03-28T10:05:06.143Z,49.50
2023-03-28T10:07:43.812Z,50.50
2023-03-28T10:10:18.946Z,50.40
2023-03-28T10:12:47.096Z,50.70
2023-03-28T10:15:29.939Z,50.70
2023-03-28T10:17:58.953Z,50.60
2023-03-28T10:20:25.553Z,50.50
2023-03-28T10:22:54.706Z,50.40
2023-03-28T10:25:22.602Z,50.50
2023-03-28T10:27:51.699Z,50.10
2023-03-28T10:30:23.935Z,50.60
2023-03-28T10:33:09.466Z,50.80
2023-03-28T10:35:36.489Z,51.00
2023-03-28T10:38:06.156Z,50.70
2023-03-28T10:40:32.810Z,50.60
2023-03-28T10:42:59.679Z,50.70
2023-03-28T10:45:37.294Z,50.60
2023-03-28T10:48:11.022Z,50.80
2023-03-28T10:50:58.026Z,50.40
2023-03-28T10:53:24.620Z,50.80
2023-03-28T10:56:00.400Z,54.90
2023-03-28T10:58:38.597Z,53.30
2023-03-28T11:01:19.787Z,53.70
2023-03-28T11:03:57.174Z,52.70
2023-03-28T11:06:33.094Z,52.10
2023-03-28T11:09:07.935Z,51.50
2023-03-28T11:11:40.536Z,50.60
2023-03-28T11:14:17.961Z,50.60
2023-03-28T11:16:51.280Z,50.30
2023-03-28T11:19:36.834Z,50.60
2023-03-28T11:22:45.840Z,50.20
2023-03-28T11:25:21.786Z,50.50
2023-03-28T11:27:55.122Z,50.50
2023-03-28T11:30:24.350Z,50.00
2023-03-28T11:32:55.229Z,50.10
2023-03-28T11:35:33.014Z,50.10
2023-03-28T11:38:08.827Z,49.70
2023-03-28T11:40:41.564Z,49.80
2023-03-28T11:43:11.451Z,50.20
2023-03-28T11:45:52.055Z,50.10
2023-03-28T11:48:38.309Z,50.20
2023-03-28T11:51:10.955Z,49.30
2023-03-28T11:53:52.981Z,49.60
2023-03-28T11:56:31.969Z,49.50
2023-03-28T11:59:02.559Z,49.80
2023-03-28T12:01:32.536Z,50.00
2023-03-28T12:04:14.546Z,50.00
2023-03-28T12:06:59.524Z,50.30
2023-03-28T12:09:54.063Z,49.70
2023-03-28T12:12:29.612Z,49.70
2023-03-28T12:14:59.134Z,49.10
2023-03-28T12:17:32.464Z,49.90
2023-03-28T12:19:59.065Z,49.50
2023-03-28T12:22:30.343Z,50.20
2023-03-28T12:25:20.166Z,50.00
2023-03-28T12:28:05.658Z,50.30
2023-03-28T12:30:45.548Z,50.00
2023-03-28T12:33:36.448Z,49.70
2023-03-28T12:36:35.816Z,49.70
2023-03-28T12:39:21.811Z,53.10
2023-03-28T12:41:48.652Z,52.60
2023-03-28T12:44:27.114Z,53.10
2023-03-28T12:46:57.700Z,51.40
2023-03-28T12:49:43.172Z,50.00
2023-03-28T12:52:19.602Z,50.60
2023-03-28T12:54:53.922Z,50.70
2023-03-28T12:57:43.488Z,50.40
2023-03-28T13:00:24.911Z,50.20
2023-03-28T13:02:54.354Z,50.20
2023-03-28T13:05:24.749Z,50.80
2023-03-28T13:07:57.560Z,50.70
2023-03-28T13:10:32.697Z,50.50
2023-03-28T13:13:06.488Z,49.90
2023-03-28T13:15:33.516Z,49.10
2023-03-28T13:18:21.770Z,49.40
2023-03-28T13:20:51.275Z,49.30
2023-03-28T13:23:18.350Z,50.10
2023-03-28T13:26:14.828Z,50.60
2023-03-28T13:28:46.451Z,51.10
2023-03-28T13:31:20.910Z,50.70
2023-03-28T13:33:49.251Z,50.20
2023-03-28T13:36:23.397Z,50.30
2023-03-28T13:39:18.567Z,49.10
2023-03-28T13:41:45.241Z,48.80
2023-03-28T13:44:22.714Z,49.20
2023-03-28T13:46:50.025Z,49.10
2023-03-28T13:49:22.335Z,49.10
2023-03-28T13:51:54.020Z,49.20
2023-03-28T13:54:20.827Z,49.70
2023-03-28T13:56:51.207Z,49.50
2023-03-28T13:59:25.186Z,49.60
2023-03-28T14:01:55.840Z,49.30
2023-03-28T14:04:29.809Z,49.90
2023-03-28T14:06:56.943Z,49.40
2023-03-28T14:09:26.367Z,49.90
2023-03-28T14:11:53.895Z,50.30
2023-03-28T14:14:29.637Z,49.50
2023-03-28T14:16:56.802Z,49.50
2023-03-28T14:19:26.045Z,49.50
2023-03-28T14:21:53.574Z,48.70
2023-03-28T14:24:24.374Z,49.40
2023-03-28T14:26:51.780Z,48.70
2023-03-28T14:29:19.227Z,49.10
2023-03-28T14:31:46.975Z,49.80
2023-03-28T14:34:13.594Z,49.50
2023-03-28T14:37:00.808Z,49.20
2023-03-28T14:39:28.696Z,48.90
2023-03-28T14:41:56.085Z,49.10
2023-03-28T14:44:23.270Z,49.50
2023-03-28T14:46:50.154Z,49.20
2023-03-28T14:49:21.194Z,49.90
2023-03-28T14:51:53.201Z,49.00
2023-03-28T14:54:23.260Z,49.80
2023-03-28T14:56:50.138Z,49.30
2023-03-28T14:59:19.791Z,49.60
2023-03-28T15:01:47.949Z,48.70
2023-03-28T15:04:15.208Z,49.70
2023-03-28T15:06:42.295Z,49.30
2023-03-28T15:09:20.673Z,49.60
2023-03-28T15:11:47.851Z,49.80
2023-03-28T15:14:25.461Z,49.70
2023-03-28T15:16:52.075Z,49.60
2023-03-28T15:19:22.258Z,49.70
2023-03-28T15:21:56.648Z,50.10
2023-03-28T15:24:24.654Z,49.10
2023-03-28T15:26:54.219Z,49.10
2023-03-28T15:29:22.291Z,49.20
2023-03-28T15:31:49.154Z,49.60
2023-03-28T15:34:23.964Z,49.30
2023-03-28T15:36:52.763Z,49.90
2023-03-28T15:39:19.501Z,49.40
2023-03-28T15:41:46.604Z,48.70
2023-03-28T15:44:19.238Z,49.10
2023-03-28T15:46:46.142Z,48.20
2023-03-28T15:49:12.874Z,48.20
2023-03-28T15:51:47.907Z,48.00
2023-03-28T15:54:27.972Z,48.30
2023-03-28T15:56:59.251Z,48.20
2023-03-28T15:59:29.846Z,48.20
2023-03-28T16:02:15.542Z,48.90
2023-03-28T16:04:56.592Z,49.10
2023-03-28T16:07:23.201Z,48.70
2023-03-28T16:09:51.253Z,48.60
2023-03-28T16:12:18.827Z,48.90
2023-03-28T16:14:46.886Z,48.30
2023-03-28T16:17:13.526Z,48.10
2023-03-28T16:19:41.924Z,48.40
2023-03-28T16:22:08.523Z,49.20
2023-03-28T16:24:35.144Z,48.20
2023-03-28T16:27:01.982Z,48.30
2023-03-28T16:29:28.610Z,48.90
2023-03-28T16:31:55.389Z,48.70
2023-03-28T16:34:22.031Z,48.40
2023-03-28T16:36:49.051Z,48.30
2023-03-28T16:39:15.649Z,48.40
2023-03-28T16:41:42.238Z,47.90
2023-03-28T16:44:08.850Z,48.30
2023-03-28T16:46:35.529Z,48.70
2023-03-28T16:49:02.267Z,48.60
2023-03-28T16:51:28.853Z,49.20
2023-03-28T16:53:55.435Z,48.10
2023-03-28T16:56:25.643Z,48.30
2023-03-28T16:58:52.287Z,47.90
2023-03-28T17:01:19.700Z,49.50
2023-03-28T17:03:46.673Z,49.50
2023-03-28T17:06:14.101Z,48.70
2023-03-28T17:08:41.024Z,48.40
2023-03-28T17:11:09.233Z,48.00
2023-03-28T17:13:36.324Z,48.00
2023-03-28T17:16:03.520Z,47.60
2023-03-28T17:18:31.753Z,49.00
2023-03-28T17:20:59.705Z,48.90
2023-03-28T17:23:27.347Z,49.50
2023-03-28T17:25:55.173Z,48.70
2023-03-28T17:28:22.507Z,48.00
2023-03-28T17:30:49.213Z,49.30
2023-03-28T17:33:16.459Z,49.00
2023-03-28T17:35:43.086Z,48.30
2023-03-28T17:38:10.170Z,47.60
2023-03-28T17:40:37.319Z,47.70
2023-03-28T17:43:04.295Z,47.60
2023-03-28T17:45:31.015Z,47.90
2023-03-28T17:47:57.923Z,48.10
2023-03-28T17:50:25.484Z,48.20
2023-03-28T17:52:53.707Z,48.80
2023-03-28T17:55:20.410Z,48.50
2023-03-28T17:57:47.183Z,47.90
2023-03-28T18:00:14.373Z,48.80
2023-03-28T18:02:46.365Z,48.60
2023-03-28T18:05:13.295Z,48.30
2023-03-28T18:07:40.297Z,47.90
2023-03-28T18:10:08.656Z,48.70
2023-03-28T18:12:36.838Z,49.30
2023-03-28T18:15:04.542Z,48.20
2023-03-28T18:17:31.697Z,48.00
2023-03-28T18:19:59.695Z,48.10
2023-03-28T18:22:27.749Z,49.00
2023-03-28T18:24:55.710Z,49.00
2023-03-28T18:27:23.263Z,48.80
2023-03-28T18:29:50.132Z,48.30
2023-03-28T18:32:17.148Z,47.80
2023-03-28T18:34:45.937Z,49.10
2023-03-28T18:37:12.989Z,49.10
2023-03-28T18:39:43.169Z,48.60
2023-03-28T18:42:11.121Z,48.40
2023-03-28T18:44:39.033Z,48.50
2023-03-28T18:47:07.965Z,49.00
2023-03-28T18:49:34.882Z,48.50
2023-03-28T18:52:04.868Z,48.90
2023-03-28T18:54:33.005Z,49.30
2023-03-28T18:57:00.368Z,48.60
2023-03-28T18:59:27.294Z,48.80
2023-03-28T19:01:54.086Z,48.60
2023-03-28T19:04:23.132Z,48.60
2023-03-28T19:06:50.268Z,49.10
2023-03-28T19:09:16.842Z,49.20
2023-03-28T19:11:43.429Z,48.90
2023-03-28T19:14:10.410Z,48.60
2023-03-28T19:16:37.160Z,49.30
2023-03-28T19:19:03.837Z,49.30
2023-03-28T19:21:30.504Z,48.60
2023-03-28T19:23:57.184Z,49.30
2023-03-28T19:26:23.811Z,48.60
2023-03-28T19:28:50.664Z,49.00
2023-03-28T19:31:17.710Z,49.20
2023-03-28T19:33:44.993Z,48.90
2023-03-28T19:36:11.859Z,49.00
2023-03-28T19:38:38.892Z,49.10
2023-03-28T19:41:10.374Z,49.00
2023-03-28T19:43:37.802Z,49.30
2023-03-28T19:46:06.237Z,48.70
2023-03-28T19:48:33.206Z,48.50
2023-03-28T19:50:59.789Z,49.30
2023-03-28T19:53:26.725Z,49.20
2023-03-28T19:55:54.207Z,49.20
2023-03-28T19:58:21.076Z,48.90
2023-03-28T20:00:47.753Z,48.40
2023-03-28T20:03:14.637Z,48.60
2023-03-28T20:05:42.266Z,48.80
2023-03-28T20:08:09.006Z,48.40
2023-03-28T20:10:42.381Z,48.70
2023-03-28T20:13:09.212Z,48.40
2023-03-28T20:15:41.399Z,49.20
2023-03-28T20:18:14.381Z,48.90
2023-03-28T20:20:41.399Z,49.30
2023-03-28T20:23:08.121Z,48.80
2023-03-28T20:25:34.783Z,48.90
2023-03-28T20:28:02.670Z,48.50
2023-03-28T20:30:30.040Z,49.00
2023-03-28T20:32:58.299Z,49.00
2023-03-28T20:35:26.356Z,49.00
2023-03-28T20:37:53.441Z,49.40
2023-03-28T20:40:20.860Z,48.40
2023-03-28T20:42:47.454Z,49.30
2023-03-28T20:45:22.279Z,49.30
2023-03-28T20:47:56.481Z,49.50
2023-03-28T20:50:26.042Z,49.10
2023-03-28T20:52:53.162Z,47.80
2023-03-28T20:55:19.751Z,47.60
2023-03-28T20:57:46.574Z,47.80
2023-03-28T21:00:15.001Z,48.90
2023-03-28T21:02:41.817Z,48.00
2023-03-28T21:05:08.668Z,47.70
2023-03-28T21:07:36.080Z,48.00
2023-03-28T21:10:03.908Z,47.90
2023-03-28T21:12:30.502Z,47.70
2023-03-28T21:14:57.151Z,47.80
2023-03-28T21:17:25.429Z,48.30
2023-03-28T21:19:53.001Z,48.00
2023-03-28T21:22:20.793Z,47.90
2023-03-28T21:24:48.254Z,48.30
2023-03-28T21:27:15.716Z,48.40
2023-03-28T21:29:42.458Z,47.50
2023-03-28T21:32:09.498Z,48.30
2023-03-28T21:34:36.914Z,48.70
2023-03-28T21:37:04.284Z,48.60
2023-03-28T21:39:30.938Z,48.10
2023-03-28T21:41:57.588Z,48.60
2023-03-28T21:44:24.180Z,48.80
2023-03-28T21:46:51.261Z,48.80
2023-03-28T21:49:19.325Z,48.20
2023-03-28T21:51:45.953Z,49.00
2023-03-28T21:54:12.797Z,48.70
2023-03-28T21:56:39.392Z,49.10
2023-03-28T21:59:06.586Z,48.00
2023-03-28T22:01:33.644Z,48.50
2023-03-28T22:04:00.779Z,48.60
2023-03-28T22:06:27.758Z,48.70
2023-03-28T22:08:55.085Z,48.60
2023-03-28T22:11:27.339Z,47.90
2023-03-28T22:14:01.219Z,48.40
2023-03-28T22:16:32.354Z,49.00
2023-03-28T22:19:00.680Z,48.10
2023-03-28T22:21:30.078Z,48.30
2023-03-28T22:23:57.131Z,48.20
2023-03-28T22:26:27.242Z,48.30
2023-03-28T22:28:54.784Z,48.40
2023-03-28T22:31:23.385Z,48.80
2023-03-28T22:33:49.978Z,48.30
2023-03-28T22:36:16.766Z,47.60
2023-03-28T22:38:43.604Z,48.10
2023-03-28T22:41:11.060Z,48.20
2023-03-28T22:43:38.327Z,48.30
2023-03-28T22:46:05.628Z,49.00
2023-03-28T22:48:32.378Z,48.30
2023-03-28T22:51:02.363Z,48.30
2023-03-28T22:53:29.944Z,48.20
2023-03-28T22:55:57.610Z,48.90
2023-03-28T22:58:24.438Z,49.00
2023-03-28T23:00:51.065Z,48.20
2023-03-28T23:03:18.013Z,48.40
2023-03-28T23:05:44.790Z,48.40
2023-03-28T23:08:11.667Z,47.80
2023-03-28T23:10:38.682Z,47.80
2023-03-28T23:13:05.523Z,47.50
2023-03-28T23:15:32.377Z,48.00
2023-03-28T23:17:59.004Z,48.20
2023-03-28T23:20:26.594Z,48.00
2023-03-28T23:22:53.699Z,48.10
2023-03-28T23:25:22.034Z,48.00
2023-03-28T23:27:48.604Z,48.00
2023-03-28T23:30:15.675Z,48.50
2023-03-28T23:32:42.326Z,47.70
2023-03-28T23:35:10.405Z,47.90
2023-03-28T23:37:38.242Z,48.30
2023-03-28T23:40:14.233Z,47.60
2023-03-28T23:42:45.433Z,47.30
2023-03-28T23:45:13.864Z,47.40
2023-03-28T23:47:40.696Z,47.30
2023-03-28T23:50:08.834Z,46.30
2023-03-28T23:52:35.678Z,47.00
2023-03-28T23:55:02.611Z,47.30
2023-03-28T23:57:29.291Z,47.00
2023-03-28T23:59:56.469Z,46.70
